Time;durP1;ratioP1;P1;durP2;ratioP2;P2;SDS_P1;SDS_P2;PMS_P1;PMS_P2;Temp;Humidity;BMP_temperature;BMP_pressure;BME280_temperature;BME280_humidity;BME280_pressure;Samples;Min_cycle;Max_cycle;Signal;HPM_P1;HPM_P2
2024/03/02 00:02:24;;;;;;;31.17;15.53;;;5.40;99.90;;;;;;5033044;28;20437;-59
2024/03/02 00:04:49;;;;;;;25.60;14.80;;;5.50;99.90;;;;;;5053797;28;20409;-60
2024/03/02 00:07:15;;;;;;;25.83;14.67;;;5.50;99.90;;;;;;5051825;28;20167;-60
2024/03/02 00:09:41;;;;;;;29.43;16.10;;;5.50;99.90;;;;;;5048868;28;20669;-60
2024/03/02 00:12:07;;;;;;;28.50;16.27;;;5.50;99.90;;;;;;5051168;28;20179;-60
2024/03/02 00:14:32;;;;;;;28.83;16.43;;;5.60;99.90;;;;;;5053361;28;20164;-60
2024/03/02 00:16:59;;;;;;;28.60;15.73;;;5.60;99.90;;;;;;5048097;28;20784;-60
2024/03/02 00:19:24;;;;;;;28.43;15.20;;;5.50;99.90;;;;;;5044732;28;20741;-60
2024/03/02 00:21:50;;;;;;;27.83;15.70;;;5.50;99.90;;;;;;5054295;28;20436;-60
2024/03/02 00:24:31;;;;;;;31.17;16.30;;;5.50;99.90;;;;;;5031598;28;20191;-58
2024/03/02 00:26:57;;;;;;;29.13;15.07;;;5.50;99.90;;;;;;5048547;28;20167;-60
2024/03/02 00:29:22;;;;;;;28.03;14.90;;;5.50;99.90;;;;;;5043736;28;20456;-60
2024/03/02 00:31:48;;;;;;;36.73;15.50;;;5.50;99.90;;;;;;5045651;28;20167;-60
2024/03/02 00:34:16;;;;;;;28.17;15.83;;;5.50;99.90;;;;;;5051102;28;20190;-60
2024/03/02 00:36:42;;;;;;;26.73;14.37;;;5.50;99.90;;;;;;5052706;28;20700;-60
2024/03/02 00:39:07;;;;;;;30.70;16.13;;;5.50;99.90;;;;;;5053183;28;20446;-60
2024/03/02 00:41:35;;;;;;;31.10;16.80;;;5.60;99.90;;;;;;5046941;28;20848;-60
2024/03/02 00:44:03;;;;;;;31.90;16.83;;;5.60;99.90;;;;;;5047339;28;20195;-60
2024/03/02 00:46:34;;;;;;;32.57;16.23;;;5.60;99.90;;;;;;5042211;28;20434;-60
2024/03/02 00:49:01;;;;;;;30.10;16.43;;;5.60;99.90;;;;;;5046376;28;20917;-60
2024/03/02 00:51:30;;;;;;;32.20;16.03;;;5.70;99.90;;;;;;5048515;28;20406;-60
2024/03/02 00:53:58;;;;;;;33.43;16.60;;;5.70;99.90;;;;;;5047392;28;20410;-60
2024/03/02 00:56:25;;;;;;;32.20;16.10;;;5.70;99.90;;;;;;5044498;28;20418;-60
2024/03/02 00:58:51;;;;;;;35.00;18.20;;;5.80;99.90;;;;;;5044292;28;20468;-58
2024/03/02 01:01:17;;;;;;;37.07;17.37;;;5.80;99.90;;;;;;5056544;28;20420;-60
2024/03/02 01:03:43;;;;;;;32.40;15.70;;;5.80;99.90;;;;;;5024263;28;20453;-60
2024/03/02 01:06:09;;;;;;;32.57;16.93;;;5.80;99.90;;;;;;5049279;28;20417;-60
2024/03/02 01:08:38;;;;;;;32.20;16.60;;;5.80;99.90;;;;;;5044009;28;20294;-60
2024/03/02 01:11:04;;;;;;;30.93;16.87;;;5.80;99.90;;;;;;5046348;28;20175;-59
2024/03/02 01:13:31;;;;;;;31.70;17.13;;;5.80;99.90;;;;;;5049464;28;20410;-60
2024/03/02 01:15:57;;;;;;;32.40;18.07;;;5.80;99.90;;;;;;5055648;28;20579;-59
2024/03/02 01:18:23;;;;;;;31.60;17.37;;;5.80;99.90;;;;;;5042942;28;21258;-60
2024/03/02 01:20:51;;;;;;;34.33;17.10;;;5.80;99.90;;;;;;5047813;28;20426;-59
2024/03/02 01:23:20;;;;;;;35.37;16.37;;;5.70;99.90;;;;;;5043571;28;20476;-59
2024/03/02 01:25:47;;;;;;;32.60;17.17;;;5.70;99.90;;;;;;5051421;28;20927;-59
2024/03/02 01:28:13;;;;;;;35.27;16.83;;;5.70;99.90;;;;;;5043882;28;20438;-59
2024/03/02 01:30:39;;;;;;;33.97;17.23;;;5.70;99.90;;;;;;5055222;28;20792;-59
2024/03/02 01:33:05;;;;;;;33.63;16.67;;;5.80;99.90;;;;;;5048048;28;20417;-59
2024/03/02 01:35:31;;;;;;;34.67;16.80;;;5.70;99.90;;;;;;5052862;28;20236;-60
2024/03/02 01:37:57;;;;;;;30.50;16.17;;;5.70;99.90;;;;;;5047717;28;20185;-60
2024/03/02 01:40:26;;;;;;;29.50;15.63;;;5.70;99.90;;;;;;5050055;28;20433;-59
2024/03/02 01:42:52;;;;;;;32.33;16.50;;;5.70;99.90;;;;;;5040928;28;20264;-60
2024/03/02 01:45:18;;;;;;;29.07;15.27;;;5.70;99.90;;;;;;5047843;28;20445;-59
2024/03/02 01:47:44;;;;;;;24.30;14.90;;;5.70;99.90;;;;;;5043327;28;20880;-59
2024/03/02 01:50:11;;;;;;;29.00;15.40;;;5.70;99.90;;;;;;5047492;28;20251;-60
2024/03/02 01:52:37;;;;;;;26.90;14.50;;;5.70;99.90;;;;;;5045561;28;20171;-60
2024/03/02 01:55:03;;;;;;;27.90;15.17;;;5.70;99.90;;;;;;5050107;28;20417;-60
2024/03/02 01:57:29;;;;;;;29.67;15.63;;;5.70;99.90;;;;;;5040414;28;20175;-59
2024/03/02 01:59:55;;;;;;;29.77;15.33;;;5.70;99.90;;;;;;5055115;28;20801;-59
2024/03/02 02:02:21;;;;;;;28.53;14.30;;;5.70;99.90;;;;;;5045749;28;20414;-59
2024/03/02 02:04:47;;;;;;;30.43;13.93;;;5.70;99.90;;;;;;5052749;28;20452;-60
2024/03/02 02:07:14;;;;;;;27.60;14.33;;;5.70;99.90;;;;;;5057116;28;20164;-59
2024/03/02 02:09:41;;;;;;;27.10;14.17;;;5.70;99.90;;;;;;5044462;28;20204;-59
2024/03/02 02:12:07;;;;;;;28.73;15.90;;;5.70;99.90;;;;;;5048238;28;20436;-59
2024/03/02 02:14:33;;;;;;;29.40;15.40;;;5.70;99.90;;;;;;5042144;28;20568;-60
2024/03/02 02:16:59;;;;;;;31.23;15.50;;;5.70;99.90;;;;;;5051208;28;20487;-60
2024/03/02 02:19:25;;;;;;;30.67;15.53;;;5.70;99.90;;;;;;5046655;28;20444;-60
2024/03/02 02:21:50;;;;;;;27.30;15.40;;;5.70;99.90;;;;;;5046436;28;20426;-60
2024/03/02 02:24:16;;;;;;;31.13;15.30;;;5.70;99.90;;;;;;5048007;28;20831;-60
2024/03/02 02:26:41;;;;;;;38.70;16.20;;;5.70;99.90;;;;;;5041840;28;20172;-60
2024/03/02 02:29:07;;;;;;;36.47;16.50;;;5.70;99.90;;;;;;5040817;28;20195;-59
2024/03/02 02:31:42;;;;;;;31.20;16.23;;;5.70;99.90;;;;;;5040946;28;20709;-59
2024/03/02 02:34:09;;;;;;;30.70;15.80;;;5.70;99.90;;;;;;5048146;28;20179;-59
2024/03/02 02:36:40;;;;;;;29.00;15.70;;;5.70;99.90;;;;;;5045300;28;20441;-59
2024/03/02 02:39:10;;;;;;;32.40;15.57;;;5.70;99.90;;;;;;5043566;28;22153;-60
2024/03/02 02:41:36;;;;;;;29.40;14.40;;;5.70;99.90;;;;;;5030787;28;20425;-60
2024/03/02 02:44:01;;;;;;;29.23;15.20;;;5.70;99.90;;;;;;5044762;28;20449;-60
2024/03/02 02:46:27;;;;;;;29.73;14.80;;;5.70;99.90;;;;;;5045966;28;20723;-60
2024/03/02 02:48:53;;;;;;;27.90;13.83;;;5.70;99.90;;;;;;5043021;28;20214;-60
2024/03/02 02:51:19;;;;;;;22.90;13.90;;;5.70;99.90;;;;;;5045740;28;20206;-59
2024/03/02 02:53:45;;;;;;;28.57;15.20;;;5.70;99.90;;;;;;5048345;28;20442;-60
2024/03/02 02:56:10;;;;;;;24.80;14.87;;;5.70;99.90;;;;;;5046071;28;20174;-59
2024/03/02 02:58:36;;;;;;;25.33;14.90;;;5.60;99.90;;;;;;5044257;28;20209;-60
2024/03/02 03:01:02;;;;;;;28.33;14.20;;;5.60;99.90;;;;;;5042229;28;20207;-59
2024/03/02 03:03:27;;;;;;;28.60;15.17;;;5.60;99.90;;;;;;5044554;28;20717;-60
2024/03/02 03:05:53;;;;;;;29.23;15.10;;;5.60;99.90;;;;;;5045734;28;20167;-59
2024/03/02 03:08:19;;;;;;;27.37;14.30;;;5.50;99.90;;;;;;5054386;28;20195;-59
2024/03/02 03:10:44;;;;;;;28.60;15.50;;;5.50;99.90;;;;;;5043551;28;20175;-60
2024/03/02 03:13:10;;;;;;;27.70;14.83;;;5.50;99.90;;;;;;5044607;28;20221;-61
2024/03/02 03:15:36;;;;;;;25.37;14.50;;;5.50;99.90;;;;;;5046104;28;20171;-60
2024/03/02 03:18:03;;;;;;;25.50;14.10;;;5.50;99.90;;;;;;5043771;28;20179;-60
2024/03/02 03:20:29;;;;;;;29.83;16.33;;;5.50;99.90;;;;;;5046122;28;20516;-59
2024/03/02 03:22:56;;;;;;;26.17;14.83;;;5.50;99.90;;;;;;5043494;28;20991;-60
2024/03/02 03:25:21;;;;;;;27.23;14.60;;;5.40;99.90;;;;;;5050472;28;20413;-58
2024/03/02 03:27:47;;;;;;;33.00;16.33;;;5.40;99.90;;;;;;5044579;28;20979;-60
2024/03/02 03:30:13;;;;;;;25.23;14.00;;;5.40;99.90;;;;;;5044793;28;20213;-58
2024/03/02 03:32:38;;;;;;;26.40;14.20;;;5.40;99.90;;;;;;5042463;28;20194;-60
2024/03/02 03:35:05;;;;;;;27.77;15.57;;;5.40;99.90;;;;;;5038717;28;20259;-59
2024/03/02 03:37:32;;;;;;;24.37;13.70;;;5.30;99.90;;;;;;5045120;28;20262;-59
2024/03/02 03:39:59;;;;;;;25.63;13.67;;;5.30;99.90;;;;;;5033201;28;20442;-59
2024/03/02 03:42:25;;;;;;;28.10;15.80;;;5.30;99.90;;;;;;5042979;28;20425;-59
2024/03/02 03:44:50;;;;;;;27.37;14.70;;;5.30;99.90;;;;;;5044029;28;20463;-59
2024/03/02 03:47:16;;;;;;;29.97;14.60;;;5.20;99.90;;;;;;5040979;28;20263;-60
2024/03/02 03:49:41;;;;;;;28.00;15.70;;;5.20;99.90;;;;;;5044021;28;20202;-59
2024/03/02 03:52:07;;;;;;;34.53;15.50;;;5.20;99.90;;;;;;5051543;28;20179;-60
2024/03/02 03:54:32;;;;;;;26.13;15.03;;;5.20;99.90;;;;;;5051433;28;20653;-59
2024/03/02 03:56:58;;;;;;;35.17;15.17;;;5.20;99.90;;;;;;5046903;28;20352;-59
2024/03/02 03:59:24;;;;;;;31.77;16.23;;;5.10;99.90;;;;;;5048323;28;20195;-59
2024/03/02 04:01:49;;;;;;;29.20;14.50;;;5.20;99.90;;;;;;5047083;28;20262;-60
2024/03/02 04:04:15;;;;;;;28.80;15.90;;;5.10;99.90;;;;;;5051293;28;20685;-60
2024/03/02 04:06:40;;;;;;;27.90;14.13;;;5.10;99.90;;;;;;5049990;28;20210;-60
2024/03/02 04:09:07;;;;;;;25.53;14.83;;;5.10;99.90;;;;;;5047864;28;20195;-60
2024/03/02 04:11:32;;;;;;;26.67;15.00;;;5.10;99.90;;;;;;5045035;28;20175;-60
2024/03/02 04:13:58;;;;;;;29.83;15.40;;;5.10;99.90;;;;;;5047953;28;20441;-60
2024/03/02 04:16:24;;;;;;;32.50;16.20;;;5.00;99.90;;;;;;5050128;28;20179;-59
2024/03/02 04:18:49;;;;;;;27.33;14.10;;;5.00;99.90;;;;;;5047222;28;20700;-59
2024/03/02 04:21:15;;;;;;;28.97;15.67;;;5.00;99.90;;;;;;5042280;28;20207;-60
2024/03/02 04:23:40;;;;;;;31.67;14.40;;;5.10;99.90;;;;;;5050475;28;20707;-59
2024/03/02 04:26:06;;;;;;;26.53;14.40;;;5.00;99.90;;;;;;5050660;28;20184;-60
2024/03/02 04:28:32;;;;;;;28.00;14.87;;;5.00;99.90;;;;;;5047886;28;20194;-60
2024/03/02 04:30:58;;;;;;;32.73;16.70;;;5.00;99.90;;;;;;5043246;28;20183;-60
2024/03/02 04:33:23;;;;;;;28.00;14.10;;;5.10;99.90;;;;;;5043519;28;20437;-59
2024/03/02 04:35:49;;;;;;;25.27;14.10;;;5.10;99.90;;;;;;5049986;28;20573;-59
2024/03/02 04:38:15;;;;;;;25.87;14.67;;;5.00;99.90;;;;;;5048717;28;20290;-59
2024/03/02 04:40:41;;;;;;;24.10;13.40;;;5.00;99.90;;;;;;5043495;28;20653;-59
2024/03/02 04:43:08;;;;;;;29.17;15.00;;;5.00;99.90;;;;;;5040289;28;20208;-60
2024/03/02 04:45:33;;;;;;;28.73;15.10;;;5.00;99.90;;;;;;5044321;28;20203;-60
2024/03/02 04:47:59;;;;;;;23.87;13.00;;;5.00;99.90;;;;;;5042906;28;20441;-60
2024/03/02 04:50:25;;;;;;;26.40;14.33;;;5.00;99.90;;;;;;5045471;28;20225;-59
2024/03/02 04:52:50;;;;;;;29.13;15.03;;;5.00;99.90;;;;;;5048173;28;20645;-60
2024/03/02 04:57:41;;;;;;;30.07;15.73;;;5.00;99.90;;;;;;5046556;28;20572;-60
2024/03/02 05:00:08;;;;;;;29.47;15.17;;;5.00;99.90;;;;;;5046859;28;20210;-59
2024/03/02 05:02:34;;;;;;;27.90;15.80;;;5.00;99.90;;;;;;5052869;28;20176;-59
2024/03/02 05:05:00;;;;;;;31.30;15.23;;;5.00;99.90;;;;;;5062203;28;20449;-60
2024/03/02 05:07:26;;;;;;;27.00;15.73;;;5.00;99.90;;;;;;5054566;28;20785;-59
2024/03/02 05:09:51;;;;;;;27.27;14.50;;;5.00;99.90;;;;;;5047020;28;20245;-60
2024/03/02 05:12:49;;;;;;;25.50;13.60;;;5.00;99.90;;;;;;5051696;28;20175;-60
2024/03/02 05:15:15;;;;;;;26.63;14.00;;;5.10;99.90;;;;;;5043253;28;20179;-59
2024/03/02 05:17:44;;;;;;;26.93;14.60;;;5.10;99.90;;;;;;5046201;28;20445;-60
2024/03/02 05:20:10;;;;;;;25.70;14.33;;;5.00;99.90;;;;;;5047104;28;20198;-59
2024/03/02 05:22:37;;;;;;;30.53;16.47;;;5.00;99.90;;;;;;5049932;28;20822;-60
2024/03/02 05:25:04;;;;;;;30.97;16.70;;;5.00;99.90;;;;;;5049878;28;20463;-59
2024/03/02 05:27:30;;;;;;;33.03;17.30;;;5.00;99.90;;;;;;5041765;28;20821;-60
2024/03/02 05:29:55;;;;;;;33.43;17.47;;;4.90;99.90;;;;;;5046313;28;21013;-60
2024/03/02 05:32:21;;;;;;;32.63;15.33;;;4.90;99.90;;;;;;5032886;28;20406;-59
2024/03/02 05:34:47;;;;;;;32.30;16.13;;;4.90;99.90;;;;;;5051602;28;20324;-60
2024/03/02 05:37:12;;;;;;;33.87;16.90;;;4.90;99.90;;;;;;5046061;28;20224;-60
2024/03/02 05:39:38;;;;;;;30.07;15.83;;;4.80;99.90;;;;;;5043597;28;20207;-60
2024/03/02 05:42:04;;;;;;;32.63;15.27;;;4.80;99.90;;;;;;5040245;28;20199;-60
2024/03/02 05:44:29;;;;;;;26.93;14.60;;;4.80;99.90;;;;;;5052263;28;20195;-60
2024/03/02 05:46:56;;;;;;;30.53;15.03;;;4.80;99.90;;;;;;5048946;28;20410;-59
2024/03/02 05:49:22;;;;;;;29.27;13.90;;;4.90;99.90;;;;;;5046443;28;20198;-60
2024/03/02 05:51:47;;;;;;;28.47;15.60;;;4.90;99.90;;;;;;5046605;28;20421;-60
2024/03/02 05:54:13;;;;;;;27.63;13.67;;;4.90;99.90;;;;;;5051181;28;20429;-60
2024/03/02 05:56:39;;;;;;;27.63;14.20;;;4.90;99.90;;;;;;5043405;28;20187;-60
2024/03/02 05:59:13;;;;;;;;;;;;;;;;;;;;;
2024/03/02 06:01:39;;;;;;;35.43;18.97;;;4.90;99.90;;;;;;5052016;28;20194;-60
2024/03/02 06:04:05;;;;;;;32.07;16.40;;;4.90;99.90;;;;;;5046989;28;20972;-60
2024/03/02 06:06:33;;;;;;;42.77;21.37;;;4.90;99.90;;;;;;5050821;28;20456;-59
2024/03/02 06:08:59;;;;;;;39.03;18.43;;;4.90;99.90;;;;;;5089761;22;20567;-55
2024/03/02 06:11:25;;;;;;;35.10;15.33;;;4.90;99.90;;;;;;5085693;28;20504;-56
2024/03/02 06:13:51;;;;;;;29.37;14.80;;;5.00;99.90;;;;;;5077557;28;20423;-57
2024/03/02 06:16:16;;;;;;;29.87;15.03;;;5.00;99.90;;;;;;5083920;28;20185;-55
2024/03/02 06:18:42;;;;;;;28.20;14.10;;;5.00;99.90;;;;;;5075987;28;21717;-55
2024/03/02 06:21:08;;;;;;;27.70;15.03;;;5.00;99.90;;;;;;5063750;28;20224;-56
2024/03/02 06:23:34;;;;;;;30.97;15.53;;;5.10;99.90;;;;;;5066010;28;20290;-56
2024/03/02 06:26:00;;;;;;;31.80;15.10;;;5.10;99.90;;;;;;5067410;28;20416;-55
2024/03/02 06:28:26;;;;;;;28.40;14.93;;;5.10;99.90;;;;;;5060759;28;20439;-56
2024/03/02 06:30:52;;;;;;;28.00;14.70;;;5.10;99.90;;;;;;5061798;28;20193;-55
2024/03/02 06:33:17;;;;;;;28.40;14.33;;;5.10;99.90;;;;;;5064741;28;20174;-56
2024/03/02 06:35:43;;;;;;;27.97;15.03;;;5.10;99.90;;;;;;5071669;28;20187;-55
2024/03/02 06:38:08;;;;;;;24.60;14.13;;;5.10;99.90;;;;;;5064777;28;20202;-55
2024/03/02 06:40:34;;;;;;;23.83;14.17;;;5.10;99.90;;;;;;5064893;28;20213;-54
2024/03/02 06:42:59;;;;;;;30.43;14.83;;;5.10;99.90;;;;;;5065789;28;20206;-57
2024/03/02 06:45:25;;;;;;;26.23;13.53;;;5.10;99.90;;;;;;5070382;28;21128;-55
2024/03/02 06:47:51;;;;;;;24.10;12.37;;;5.10;99.90;;;;;;5071524;28;20656;-55
2024/03/02 06:50:16;;;;;;;24.47;12.93;;;5.10;99.90;;;;;;5063754;28;20190;-54
2024/03/02 06:52:43;;;;;;;25.63;13.07;;;5.10;99.90;;;;;;5065040;28;20189;-58
2024/03/02 06:55:09;;;;;;;22.63;13.17;;;5.10;99.90;;;;;;5064907;28;20221;-57
2024/03/02 06:57:34;;;;;;;33.27;14.77;;;5.10;99.90;;;;;;5064449;28;20460;-56
2024/03/02 07:00:00;;;;;;;26.77;14.30;;;5.10;99.90;;;;;;5062965;28;20185;-56
2024/03/02 07:02:26;;;;;;;25.87;13.87;;;5.10;99.90;;;;;;5063355;28;20251;-56
2024/03/02 07:04:53;;;;;;;19.00;11.90;;;5.20;99.90;;;;;;5058060;28;20194;-56
2024/03/02 07:07:18;;;;;;;26.43;12.90;;;5.20;99.90;;;;;;5064306;28;20413;-58
2024/03/02 07:09:44;;;;;;;24.43;13.57;;;5.20;99.90;;;;;;5058743;28;20457;-57
2024/03/02 07:12:09;;;;;;;26.60;14.20;;;5.20;99.90;;;;;;5051700;28;20179;-59
2024/03/02 07:15:04;;;;;;;25.53;13.90;;;5.20;99.90;;;;;;5058614;28;20246;-58
2024/03/02 07:17:30;;;;;;;31.30;14.87;;;5.20;99.90;;;;;;5066019;28;20194;-58
2024/03/02 07:19:56;;;;;;;26.40;13.77;;;5.30;99.90;;;;;;5060299;28;20531;-59
2024/03/02 07:22:22;;;;;;;26.77;13.43;;;5.30;99.90;;;;;;5065413;28;21034;-56
2024/03/02 07:24:49;;;;;;;24.90;13.00;;;5.40;99.90;;;;;;5063017;28;20460;-60
2024/03/02 07:27:15;;;;;;;24.80;13.00;;;5.30;99.90;;;;;;5066905;28;20508;-59
2024/03/02 07:29:41;;;;;;;23.90;13.17;;;5.40;99.90;;;;;;5067237;28;20452;-59
2024/03/02 07:32:08;;;;;;;27.43;15.30;;;5.40;99.90;;;;;;5070138;28;20933;-58
2024/03/02 07:34:34;;;;;;;29.17;14.60;;;5.40;99.90;;;;;;5072763;28;20420;-58
2024/03/02 07:37:00;;;;;;;22.27;12.70;;;5.40;99.90;;;;;;5065744;28;21431;-59
2024/03/02 07:39:25;;;;;;;27.30;14.03;;;5.40;99.90;;;;;;5062081;28;21035;-57
2024/03/02 07:41:51;;;;;;;26.10;13.43;;;5.40;99.90;;;;;;5063496;28;20186;-59
2024/03/02 07:44:18;;;;;;;24.10;12.73;;;5.40;99.90;;;;;;5067294;28;20194;-54
2024/03/02 07:46:46;;;;;;;25.67;14.10;;;5.40;99.90;;;;;;5065864;28;20178;-57
2024/03/02 07:49:13;;;;;;;19.53;11.27;;;5.50;99.90;;;;;;5067681;28;20836;-57
2024/03/02 07:51:39;;;;;;;22.70;11.37;;;5.60;99.90;;;;;;5061881;28;20456;-58
2024/03/02 07:54:05;;;;;;;19.93;11.40;;;5.60;99.90;;;;;;5062684;28;20474;-58
2024/03/02 07:56:30;;;;;;;26.90;12.83;;;5.60;99.90;;;;;;5061512;28;20209;-57
2024/03/02 07:59:00;;;;;;;19.87;10.87;;;5.70;99.90;;;;;;5055789;28;20263;-57
2024/03/02 08:01:32;;;;;;;26.70;12.80;;;5.80;99.90;;;;;;5060469;28;20170;-56
2024/03/02 08:03:59;;;;;;;24.57;11.97;;;5.90;99.90;;;;;;5062099;28;20523;-60
2024/03/02 08:06:27;;;;;;;24.20;12.23;;;6.00;99.90;;;;;;5063139;28;21270;-55
2024/03/02 08:08:56;;;;;;;21.43;11.37;;;6.10;99.90;;;;;;5060495;28;20526;-58
2024/03/02 08:11:22;;;;;;;21.93;12.40;;;6.10;99.90;;;;;;5064007;28;20491;-59
2024/03/02 08:13:49;;;;;;;20.17;10.30;;;6.20;99.90;;;;;;5058610;28;20436;-59
2024/03/02 08:16:21;;;;;;;20.63;11.43;;;6.20;99.90;;;;;;5059749;28;20182;-58
2024/03/02 08:18:50;;;;;;;17.93;10.03;;;6.20;99.90;;;;;;5063271;28;20483;-57
2024/03/02 08:21:16;;;;;;;19.23;10.53;;;6.20;99.90;;;;;;5060599;28;20440;-60
2024/03/02 08:23:42;;;;;;;22.00;11.10;;;6.30;99.90;;;;;;5060584;28;20464;-60
2024/03/02 08:26:09;;;;;;;18.80;10.10;;;6.30;99.90;;;;;;5066491;28;20428;-60
2024/03/02 08:28:40;;;;;;;14.80;8.97;;;6.30;99.90;;;;;;5060883;28;20479;-57
2024/03/02 08:31:06;;;;;;;21.13;10.10;;;6.30;99.90;;;;;;5058728;28;20424;-60
2024/03/02 08:33:32;;;;;;;16.83;9.47;;;6.40;99.90;;;;;;5062982;28;20424;-60
2024/03/02 08:35:58;;;;;;;15.60;9.00;;;6.30;99.90;;;;;;5059716;28;20444;-59
2024/03/02 08:38:24;;;;;;;18.67;9.50;;;6.30;99.90;;;;;;5061712;28;20195;-61
2024/03/02 08:40:50;;;;;;;14.37;9.20;;;6.40;99.90;;;;;;5051297;28;20440;-58
2024/03/02 08:43:15;;;;;;;18.60;10.07;;;6.50;99.90;;;;;;5068695;28;20209;-58
2024/03/02 08:45:41;;;;;;;16.37;8.63;;;6.50;99.90;;;;;;5058490;28;20179;-59
2024/03/02 08:48:10;;;;;;;14.87;8.30;;;6.60;99.90;;;;;;5060096;28;20189;-58
2024/03/02 08:50:36;;;;;;;16.47;8.93;;;6.70;99.90;;;;;;5059779;28;20186;-57
2024/03/02 08:53:03;;;;;;;11.67;7.53;;;6.80;99.90;;;;;;5057320;28;20432;-56
2024/03/02 08:55:29;;;;;;;15.47;9.43;;;6.90;99.90;;;;;;5060334;28;20441;-57
2024/03/02 08:57:55;;;;;;;16.10;9.63;;;6.90;99.90;;;;;;5062720;28;20494;-58
2024/03/02 09:00:21;;;;;;;19.90;10.53;;;7.00;99.90;;;;;;5060276;28;20174;-57
2024/03/02 09:02:47;;;;;;;18.40;10.83;;;7.10;99.90;;;;;;5057666;28;20512;-58
2024/03/02 09:05:12;;;;;;;19.00;9.80;;;7.20;99.90;;;;;;5063129;28;20468;-60
2024/03/02 09:07:38;;;;;;;21.07;9.67;;;7.30;99.90;;;;;;5059465;28;20657;-58
2024/03/02 09:10:08;;;;;;;21.77;11.90;;;7.40;99.90;;;;;;5063402;28;20202;-59
2024/03/02 09:12:34;;;;;;;23.77;13.10;;;7.50;99.90;;;;;;5061425;28;20758;-59
2024/03/02 09:15:03;;;;;;;27.43;14.03;;;7.50;99.90;;;;;;5065634;28;20440;-59
2024/03/02 09:17:29;;;;;;;22.10;12.00;;;7.60;99.90;;;;;;5060924;28;20728;-57
2024/03/02 09:19:55;;;;;;;25.53;12.70;;;7.70;99.90;;;;;;5058089;28;20481;-57
2024/03/02 09:22:20;;;;;;;22.97;12.63;;;7.80;99.90;;;;;;5068494;28;20459;-60
2024/03/02 09:24:46;;;;;;;19.73;10.80;;;7.90;99.90;;;;;;5074956;28;20203;-58
2024/03/02 09:27:12;;;;;;;21.30;11.00;;;8.00;99.90;;;;;;5055205;28;20513;-55
2024/03/02 09:29:38;;;;;;;20.53;10.17;;;8.10;99.90;;;;;;5060380;28;20209;-58
2024/03/02 09:32:08;;;;;;;21.20;11.10;;;8.20;99.90;;;;;;5066786;28;20182;-58
2024/03/02 09:34:33;;;;;;;20.70;11.63;;;8.20;99.90;;;;;;5064213;28;21198;-60
2024/03/02 09:36:59;;;;;;;22.53;11.43;;;8.30;99.90;;;;;;5069178;28;20460;-58
2024/03/02 09:39:25;;;;;;;19.80;11.70;;;8.40;99.90;;;;;;5062794;28;20201;-56
2024/03/02 09:41:51;;;;;;;20.33;10.50;;;8.50;99.90;;;;;;5066288;28;20174;-60
2024/03/02 09:44:17;;;;;;;19.13;10.57;;;8.50;99.90;;;;;;5068618;28;20919;-58
2024/03/02 09:46:43;;;;;;;20.53;12.07;;;8.60;99.90;;;;;;5058106;28;20593;-57
2024/03/02 09:49:10;;;;;;;16.97;10.07;;;8.70;99.90;;;;;;5059617;28;20203;-58
2024/03/02 09:51:37;;;;;;;15.07;9.73;;;8.80;99.90;;;;;;5069002;28;20468;-61
2024/03/02 09:54:02;;;;;;;15.87;9.40;;;8.90;99.90;;;;;;5061689;28;20479;-56
2024/03/02 09:56:28;;;;;;;20.40;10.90;;;9.00;99.90;;;;;;5057597;28;20867;-57
2024/03/02 09:58:54;;;;;;;16.90;9.57;;;9.10;99.90;;;;;;5054337;28;20202;-58
2024/03/02 10:01:19;;;;;;;19.00;10.50;;;9.20;99.90;;;;;;5056685;28;20313;-59
2024/03/02 10:03:49;;;;;;;16.43;9.33;;;9.30;99.90;;;;;;5053264;28;20297;-60
2024/03/02 10:06:19;;;;;;;17.30;10.10;;;9.50;99.90;;;;;;5064286;28;20209;-58
2024/03/02 10:08:44;;;;;;;16.13;9.50;;;9.70;99.90;;;;;;5062528;28;20474;-59
2024/03/02 10:11:10;;;;;;;16.10;9.17;;;9.80;99.90;;;;;;5059359;28;20432;-58
2024/03/02 10:13:36;;;;;;;15.20;9.87;;;9.90;99.90;;;;;;5063930;28;20186;-57
2024/03/02 10:16:12;;;;;;;16.33;9.37;;;10.00;99.90;;;;;;5060812;28;20507;-58
2024/03/02 10:18:38;;;;;;;9.10;6.17;;;10.10;99.90;;;;;;5047481;28;20328;-58
2024/03/02 10:21:14;;;;;;;10.10;5.80;;;10.20;99.90;;;;;;5061631;28;20524;-57
2024/03/02 10:23:39;;;;;;;9.63;6.50;;;10.30;99.90;;;;;;5054498;28;20290;-59
2024/03/02 10:26:18;;;;;;;10.60;7.00;;;10.40;99.90;;;;;;5067632;28;20887;-59
2024/03/02 10:28:58;;;;;;;9.43;5.17;;;10.60;99.90;;;;;;5056276;28;20236;-59
2024/03/02 10:31:27;;;;;;;11.20;7.53;;;10.70;99.90;;;;;;5052969;28;20461;-58
2024/03/02 10:33:57;;;;;;;6.60;4.70;;;10.90;99.90;;;;;;5065432;28;20424;-57
2024/03/02 10:36:25;;;;;;;5.37;4.33;;;11.00;99.90;;;;;;5052888;28;20429;-58
2024/03/02 10:38:54;;;;;;;6.80;4.27;;;11.10;99.90;;;;;;5062034;28;21017;-58
2024/03/02 10:41:23;;;;;;;6.40;4.37;;;11.20;95.30;;;;;;5057595;28;20858;-59
2024/03/02 10:43:58;;;;;;;21.03;4.40;;;11.20;93.90;;;;;;5056483;28;20817;-62
2024/03/02 10:46:32;;;;;;;7.80;5.23;;;11.20;92.50;;;;;;5052197;28;21196;-59
2024/03/02 10:48:58;;;;;;;6.00;3.87;;;11.20;92.40;;;;;;5056761;28;20444;-58
2024/03/02 10:51:31;;;;;;;6.47;4.57;;;11.30;92.40;;;;;;5059218;28;20433;-58
2024/03/02 10:53:57;;;;;;;4.33;3.33;;;11.30;94.10;;;;;;5058892;28;20459;-60
2024/03/02 10:56:49;;;;;;;6.40;4.13;;;11.50;92.10;;;;;;5066818;28;20883;-57
2024/03/02 10:59:24;;;;;;;5.50;3.40;;;11.60;91.70;;;;;;5060965;28;20436;-59
2024/03/02 11:01:51;;;;;;;3.13;2.80;;;11.80;90.30;;;;;;5062807;28;20992;-58
2024/03/02 11:04:18;;;;;;;3.97;3.17;;;11.90;83.60;;;;;;5060985;28;20471;-58
2024/03/02 11:06:51;;;;;;;5.10;3.73;;;12.10;80.70;;;;;;5068481;28;20435;-57
2024/03/02 11:09:22;;;;;;;4.40;3.37;;;12.20;73.00;;;;;;5071674;28;20492;-60
2024/03/02 11:12:01;;;;;;;3.47;3.07;;;12.30;68.90;;;;;;5064009;28;20447;-58
2024/03/02 11:14:29;;;;;;;6.30;3.60;;;12.30;65.20;;;;;;5051934;28;21486;-58
2024/03/02 11:16:55;;;;;;;4.70;3.30;;;12.30;69.20;;;;;;5061398;28;20468;-60
2024/03/02 11:19:22;;;;;;;6.37;3.70;;;12.50;69.50;;;;;;5066357;28;20476;-58
2024/03/02 11:21:48;;;;;;;6.40;4.47;;;12.60;67.50;;;;;;5068628;28;20340;-57
2024/03/02 11:24:23;;;;;;;4.80;3.43;;;12.70;67.70;;;;;;5063282;28;20445;-57
2024/03/02 11:26:51;;;;;;;4.63;2.90;;;12.90;67.30;;;;;;5053802;28;20427;-55
2024/03/02 11:29:35;;;;;;;4.57;2.77;;;13.10;64.60;;;;;;5057503;28;20479;-55
2024/03/02 11:32:01;;;;;;;3.30;2.70;;;13.40;61.90;;;;;;5060967;28;20424;-58
2024/03/02 11:34:39;;;;;;;7.70;5.50;;;13.70;60.00;;;;;;5065121;28;20619;-57
2024/03/02 11:37:05;;;;;;;7.93;4.60;;;14.10;61.00;;;;;;5059470;28;21202;-60
2024/03/02 11:39:31;;;;;;;5.90;4.77;;;14.40;59.00;;;;;;5060764;28;20455;-57
2024/03/02 11:41:57;;;;;;;6.20;4.87;;;14.70;57.90;;;;;;5060525;28;20182;-59
2024/03/02 11:44:29;;;;;;;6.83;4.97;;;15.00;57.30;;;;;;5075961;28;20198;-60
2024/03/02 11:47:02;;;;;;;5.63;4.30;;;15.20;55.60;;;;;;5065826;28;20518;-57
2024/03/02 11:49:40;;;;;;;6.67;4.33;;;15.30;55.20;;;;;;5072160;28;21098;-59
2024/03/02 11:52:09;;;;;;;7.63;4.80;;;15.40;54.80;;;;;;5073723;28;20624;-59
2024/03/02 11:54:37;;;;;;;6.97;4.40;;;15.50;54.60;;;;;;5065027;28;20895;-59
2024/03/02 11:57:03;;;;;;;4.27;3.50;;;15.60;53.90;;;;;;5070466;28;20412;-57
2024/03/02 11:59:30;;;;;;;3.80;3.20;;;15.70;53.80;;;;;;5071293;28;20829;-59
2024/03/02 12:01:56;;;;;;;4.20;3.60;;;16.00;54.40;;;;;;5065951;28;20444;-57
2024/03/02 12:04:23;;;;;;;3.60;3.13;;;16.40;53.10;;;;;;5063839;28;20452;-61
2024/03/02 12:06:55;;;;;;;3.53;3.00;;;16.70;51.40;;;;;;5075515;28;20192;-59
2024/03/02 12:09:21;;;;;;;5.97;3.90;;;17.00;51.20;;;;;;5069080;28;21016;-59
2024/03/02 12:11:47;;;;;;;5.40;3.17;;;17.30;50.60;;;;;;5065733;28;20428;-58
2024/03/02 12:14:13;;;;;;;4.57;3.33;;;17.60;50.50;;;;;;5077367;28;20524;-62
2024/03/02 12:16:39;;;;;;;3.80;3.30;;;17.90;49.70;;;;;;5081584;28;20196;-62
2024/03/02 12:19:05;;;;;;;4.80;3.20;;;18.30;49.50;;;;;;5082854;28;20205;-63
2024/03/02 12:21:31;;;;;;;4.77;3.80;;;18.70;48.60;;;;;;5068956;28;20429;-62
2024/03/02 12:23:57;;;;;;;3.60;2.97;;;19.00;47.80;;;;;;5081768;28;20976;-62
2024/03/02 12:26:23;;;;;;;2.67;2.47;;;19.30;47.60;;;;;;5076911;28;20170;-62
2024/03/02 12:28:49;;;;;;;2.50;2.30;;;19.60;45.60;;;;;;5077593;28;20504;-62
2024/03/02 12:31:15;;;;;;;6.50;2.17;;;19.70;45.40;;;;;;5073750;28;20436;-62
2024/03/02 12:33:41;;;;;;;2.97;2.60;;;19.60;44.90;;;;;;5057019;28;20179;-62
2024/03/02 12:36:11;;;;;;;3.57;2.90;;;19.60;44.40;;;;;;5073800;28;20217;-67
2024/03/02 12:38:37;;;;;;;3.10;2.77;;;19.60;44.50;;;;;;5076342;28;20444;-62
2024/03/02 12:41:05;;;;;;;3.93;2.20;;;19.60;44.30;;;;;;5079235;28;20433;-62
2024/03/02 12:43:31;;;;;;;2.10;1.90;;;19.60;44.40;;;;;;5068474;28;20248;-62